This is the latest recevied weather packets stored in our database for station/object IK2CHZ-3. If no packets are shown the sender has not sent any weather packets the latest 1 day(s).
| Time | Temp. | Humidity | Pressure | Rain* | Wind** | Luminosity | Snow |
|---|---|---|---|---|---|---|---|
| 1778085440 | 21.67° C | 48% | 1006.2 hPa | 0 mm | - | - | - |
| 1778084780 | 21.67° C | 48% | 1006.1 hPa | 0 mm | - | - | - |
| 1778082800 | 21.67° C | 72% | 1006.1 hPa | 0 mm | - | - | - |
| 1778082139 | 21.67° C | 73% | 1006.2 hPa | 0 mm | - | - | - |
| 1778081480 | 21.11° C | 75% | 1006.2 hPa | 0 mm | - | - | - |
| 1778079500 | 20.56° C | 76% | 1006.5 hPa | 0 mm | - | - | - |
| 1778078180 | 20.56° C | 76% | 1006.8 hPa | 0 mm | - | - | - |
| 1778072239 | 18.89° C | 81% | 1008 hPa | 0 mm | - | - | - |
| 1778071579 | 18.89° C | 81% | 1008 hPa | 0 mm | - | - | - |
| 1778070920 | 18.33° C | 81% | 1008 hPa | 0 mm | - | - | - |
| 1778067620 | 17.78° C | 86% | 1008.4 hPa | 0 mm | - | - | - |
| 1778066959 | 17.22° C | 86% | 1008.6 hPa | 0 mm | - | - | - |
| 1778066300 | 17.22° C | 88% | 1008.5 hPa | 0 mm | - | - | - |
| 1778062999 | 16.11° C | 90% | 1008.9 hPa | 1.78 mm | - | - | - |
| 1778062340 | 16.11° C | 90% | 1008.8 hPa | 2.03 mm | - | - | - |
| 1778061679 | 15.56° C | 92% | 1008.8 hPa | 2.79 mm | - | - | - |
| 1778061020 | 15° C | 92% | 1008.7 hPa | 5.08 mm | - | - | - |
| 1778059699 | 15° C | 92% | 1008.7 hPa | 5.08 mm | - | - | - |
| 1778059040 | 14.44° C | 92% | 1008.9 hPa | 4.57 mm | - | - | - |
| 1778058379 | 14.44° C | 92% | 1009.5 hPa | 5.08 mm | - | - | - |
| 1778057720 | 14.44° C | 92% | 1009.6 hPa | 2.79 mm | - | - | - |
| 1778057059 | 14.44° C | 92% | 1009 hPa | 1.78 mm | - | - | - |
| 1778056399 | 14.44° C | 92% | 1008.8 hPa | 1.27 mm | - | - | - |
| 1778054419 | 14.44° C | 92% | 1009 hPa | 0.25 mm | - | - | - |
| 1778053758 | 14.44° C | 92% | 1008.9 hPa | 0.25 mm | - | - | - |
* Rain latest hour (hover to see other rain measurements)
** Current wind speed in m/s (hover to see current wind gust speed)